Terminal Aerodrome Forecast
Issued by NWS Bismarck, ND

Home | Current Version | Previous Version | Text Only | Print | Product List | Glossary Off
Versions: 1 2 3 4 5 6 7 8 9 10 11 12 13 14 15 16 17

718
FTUS43 KBIS 162333
TAFISN
TAF
KISN 162333Z 1700/1724 17005KT P6SM SKC
     FM171200 24007KT P6SM OVC150 WS020/27045KT
     FM171800 25013KT P6SM SCT130
     FM172000 26013KT P6SM VCSH SCT035 BKN060=

USA.gov is the U.S. government's official web portal to all federal, state and local government web resources and services.